sensor_id;sensor_type;location;lat;lon;timestamp;P1;durP1;ratioP1;P2;durP2;ratioP2
67248;SDS011;63247;54.300;18.592;2024-01-06T00:00:27;48.80;;;16.63;;
67248;SDS011;63247;54.300;18.592;2024-01-06T00:02:53;61.70;;;20.47;;
67248;SDS011;63247;54.300;18.592;2024-01-06T00:05:18;68.83;;;22.10;;
67248;SDS011;63247;54.300;18.592;2024-01-06T00:07:44;66.37;;;21.93;;
67248;SDS011;63247;54.300;18.592;2024-01-06T00:10:09;68.10;;;22.37;;
67248;SDS011;63247;54.300;18.592;2024-01-06T00:12:34;62.15;;;21.90;;
67248;SDS011;63247;54.300;18.592;2024-01-06T00:15:00;61.37;;;21.63;;
67248;SDS011;63247;54.300;18.592;2024-01-06T00:17:25;56.67;;;19.03;;
67248;SDS011;63247;54.300;18.592;2024-01-06T00:19:51;50.20;;;17.47;;
67248;SDS011;63247;54.300;18.592;2024-01-06T00:22:19;42.57;;;14.43;;
67248;SDS011;63247;54.300;18.592;2024-01-06T00:24:45;40.63;;;15.27;;
67248;SDS011;63247;54.300;18.592;2024-01-06T00:27:10;44.37;;;16.23;;
67248;SDS011;63247;54.300;18.592;2024-01-06T00:29:36;43.30;;;14.90;;
67248;SDS011;63247;54.300;18.592;2024-01-06T00:32:01;45.27;;;15.37;;
67248;SDS011;63247;54.300;18.592;2024-01-06T00:34:27;46.27;;;15.87;;
67248;SDS011;63247;54.300;18.592;2024-01-06T00:36:52;41.22;;;14.93;;
67248;SDS011;63247;54.300;18.592;2024-01-06T00:39:18;45.70;;;16.23;;
67248;SDS011;63247;54.300;18.592;2024-01-06T00:41:45;49.40;;;16.97;;
67248;SDS011;63247;54.300;18.592;2024-01-06T00:44:10;41.38;;;15.82;;
67248;SDS011;63247;54.300;18.592;2024-01-06T00:46:35;46.37;;;14.97;;
67248;SDS011;63247;54.300;18.592;2024-01-06T00:49:01;40.77;;;15.57;;
67248;SDS011;63247;54.300;18.592;2024-01-06T00:51:26;48.47;;;16.83;;
67248;SDS011;63247;54.300;18.592;2024-01-06T00:53:52;44.40;;;15.93;;
67248;SDS011;63247;54.300;18.592;2024-01-06T00:56:18;44.07;;;16.00;;
67248;SDS011;63247;54.300;18.592;2024-01-06T00:58:43;51.67;;;18.38;;
67248;SDS011;63247;54.300;18.592;2024-01-06T01:01:09;54.53;;;19.10;;
67248;SDS011;63247;54.300;18.592;2024-01-06T01:03:34;57.37;;;20.70;;
67248;SDS011;63247;54.300;18.592;2024-01-06T01:05:59;63.07;;;22.13;;
67248;SDS011;63247;54.300;18.592;2024-01-06T01:08:25;62.33;;;22.87;;
67248;SDS011;63247;54.300;18.592;2024-01-06T01:10:51;73.65;;;25.38;;
67248;SDS011;63247;54.300;18.592;2024-01-06T01:13:16;71.90;;;25.55;;
67248;SDS011;63247;54.300;18.592;2024-01-06T01:15:41;63.03;;;22.67;;
67248;SDS011;63247;54.300;18.592;2024-01-06T01:18:07;67.00;;;22.87;;
67248;SDS011;63247;54.300;18.592;2024-01-06T01:20:32;75.77;;;26.30;;
67248;SDS011;63247;54.300;18.592;2024-01-06T01:22:58;77.63;;;27.90;;
67248;SDS011;63247;54.300;18.592;2024-01-06T01:25:23;76.27;;;26.70;;
67248;SDS011;63247;54.300;18.592;2024-01-06T01:27:48;73.30;;;27.13;;
67248;SDS011;63247;54.300;18.592;2024-01-06T01:30:14;73.40;;;27.23;;
67248;SDS011;63247;54.300;18.592;2024-01-06T01:32:39;79.97;;;28.87;;
67248;SDS011;63247;54.300;18.592;2024-01-06T01:35:05;78.13;;;27.90;;
67248;SDS011;63247;54.300;18.592;2024-01-06T01:37:30;81.03;;;28.23;;
67248;SDS011;63247;54.300;18.592;2024-01-06T01:39:56;82.22;;;29.40;;
67248;SDS011;63247;54.300;18.592;2024-01-06T01:42:22;75.30;;;28.30;;
67248;SDS011;63247;54.300;18.592;2024-01-06T01:44:47;76.45;;;26.45;;
67248;SDS011;63247;54.300;18.592;2024-01-06T01:47:13;80.03;;;28.57;;
67248;SDS011;63247;54.300;18.592;2024-01-06T01:49:43;79.30;;;27.80;;
67248;SDS011;63247;54.300;18.592;2024-01-06T01:52:10;79.40;;;28.23;;
67248;SDS011;63247;54.300;18.592;2024-01-06T01:54:36;75.15;;;26.48;;
67248;SDS011;63247;54.300;18.592;2024-01-06T01:57:02;74.60;;;26.33;;
67248;SDS011;63247;54.300;18.592;2024-01-06T01:59:27;82.68;;;29.33;;
67248;SDS011;63247;54.300;18.592;2024-01-06T02:01:53;74.53;;;27.43;;
67248;SDS011;63247;54.300;18.592;2024-01-06T02:04:19;77.68;;;25.95;;
67248;SDS011;63247;54.300;18.592;2024-01-06T02:06:44;70.90;;;24.57;;
67248;SDS011;63247;54.300;18.592;2024-01-06T02:09:09;76.67;;;27.03;;
67248;SDS011;63247;54.300;18.592;2024-01-06T02:11:36;77.97;;;28.17;;
67248;SDS011;63247;54.300;18.592;2024-01-06T02:14:01;74.17;;;25.90;;
67248;SDS011;63247;54.300;18.592;2024-01-06T02:16:27;76.07;;;27.47;;
67248;SDS011;63247;54.300;18.592;2024-01-06T02:18:52;68.47;;;24.77;;
67248;SDS011;63247;54.300;18.592;2024-01-06T02:21:17;68.83;;;24.57;;
67248;SDS011;63247;54.300;18.592;2024-01-06T02:23:46;62.03;;;23.13;;
67248;SDS011;63247;54.300;18.592;2024-01-06T02:26:12;69.25;;;24.75;;
67248;SDS011;63247;54.300;18.592;2024-01-06T02:28:39;69.70;;;24.77;;
67248;SDS011;63247;54.300;18.592;2024-01-06T02:31:05;73.20;;;26.13;;
67248;SDS011;63247;54.300;18.592;2024-01-06T02:33:30;71.23;;;25.27;;
67248;SDS011;63247;54.300;18.592;2024-01-06T02:35:56;70.43;;;26.10;;
67248;SDS011;63247;54.300;18.592;2024-01-06T02:38:21;66.82;;;24.90;;
67248;SDS011;63247;54.300;18.592;2024-01-06T02:40:46;67.57;;;25.43;;
67248;SDS011;63247;54.300;18.592;2024-01-06T02:43:12;71.10;;;25.60;;
67248;SDS011;63247;54.300;18.592;2024-01-06T02:45:37;74.07;;;26.20;;
67248;SDS011;63247;54.300;18.592;2024-01-06T02:48:03;62.57;;;22.47;;
67248;SDS011;63247;54.300;18.592;2024-01-06T02:50:28;64.35;;;23.17;;
67248;SDS011;63247;54.300;18.592;2024-01-06T02:52:54;58.40;;;21.60;;
67248;SDS011;63247;54.300;18.592;2024-01-06T02:55:19;58.87;;;21.07;;
67248;SDS011;63247;54.300;18.592;2024-01-06T02:57:45;54.97;;;20.60;;
67248;SDS011;63247;54.300;18.592;2024-01-06T03:00:10;56.37;;;21.47;;
67248;SDS011;63247;54.300;18.592;2024-01-06T03:02:37;59.42;;;21.27;;
67248;SDS011;63247;54.300;18.592;2024-01-06T03:05:04;62.28;;;22.15;;
67248;SDS011;63247;54.300;18.592;2024-01-06T03:07:30;59.93;;;20.50;;
67248;SDS011;63247;54.300;18.592;2024-01-06T03:09:55;56.50;;;18.60;;
67248;SDS011;63247;54.300;18.592;2024-01-06T03:12:20;50.97;;;17.20;;
67248;SDS011;63247;54.300;18.592;2024-01-06T03:14:47;50.50;;;17.73;;
67248;SDS011;63247;54.300;18.592;2024-01-06T03:17:12;45.57;;;17.30;;
67248;SDS011;63247;54.300;18.592;2024-01-06T03:19:38;39.33;;;15.55;;
67248;SDS011;63247;54.300;18.592;2024-01-06T03:22:04;40.93;;;14.93;;
67248;SDS011;63247;54.300;18.592;2024-01-06T03:24:30;42.72;;;14.65;;
67248;SDS011;63247;54.300;18.592;2024-01-06T03:26:56;38.92;;;13.95;;
67248;SDS011;63247;54.300;18.592;2024-01-06T03:29:21;36.57;;;13.67;;
67248;SDS011;63247;54.300;18.592;2024-01-06T03:31:47;33.90;;;11.00;;
67248;SDS011;63247;54.300;18.592;2024-01-06T03:34:12;32.33;;;11.33;;
67248;SDS011;63247;54.300;18.592;2024-01-06T03:36:41;28.92;;;9.73;;
67248;SDS011;63247;54.300;18.592;2024-01-06T03:39:07;24.00;;;7.68;;
67248;SDS011;63247;54.300;18.592;2024-01-06T03:41:32;26.53;;;8.53;;
67248;SDS011;63247;54.300;18.592;2024-01-06T03:43:58;24.67;;;7.97;;
67248;SDS011;63247;54.300;18.592;2024-01-06T03:46:23;20.85;;;6.95;;
67248;SDS011;63247;54.300;18.592;2024-01-06T03:48:49;13.97;;;4.80;;
67248;SDS011;63247;54.300;18.592;2024-01-06T03:51:14;14.65;;;4.88;;
67248;SDS011;63247;54.300;18.592;2024-01-06T03:53:40;7.80;;;2.53;;
67248;SDS011;63247;54.300;18.592;2024-01-06T03:56:05;13.43;;;4.60;;
67248;SDS011;63247;54.300;18.592;2024-01-06T03:58:31;11.23;;;3.85;;
67248;SDS011;63247;54.300;18.592;2024-01-06T04:00:57;11.30;;;4.33;;
67248;SDS011;63247;54.300;18.592;2024-01-06T04:03:22;14.50;;;4.33;;
67248;SDS011;63247;54.300;18.592;2024-01-06T04:05:48;14.98;;;4.75;;
67248;SDS011;63247;54.300;18.592;2024-01-06T04:08:13;12.10;;;3.90;;
67248;SDS011;63247;54.300;18.592;2024-01-06T04:10:39;11.63;;;4.23;;
67248;SDS011;63247;54.300;18.592;2024-01-06T04:13:06;7.70;;;2.30;;
67248;SDS011;63247;54.300;18.592;2024-01-06T04:15:32;10.17;;;3.10;;
67248;SDS011;63247;54.300;18.592;2024-01-06T04:18:00;13.88;;;3.95;;
67248;SDS011;63247;54.300;18.592;2024-01-06T04:20:27;13.73;;;4.60;;
67248;SDS011;63247;54.300;18.592;2024-01-06T04:22:53;14.85;;;5.78;;
67248;SDS011;63247;54.300;18.592;2024-01-06T04:25:18;13.60;;;5.30;;
67248;SDS011;63247;54.300;18.592;2024-01-06T04:27:43;22.20;;;7.70;;
67248;SDS011;63247;54.300;18.592;2024-01-06T04:30:11;20.30;;;7.10;;
67248;SDS011;63247;54.300;18.592;2024-01-06T04:32:37;24.92;;;8.02;;
67248;SDS011;63247;54.300;18.592;2024-01-06T04:35:02;22.40;;;7.63;;
67248;SDS011;63247;54.300;18.592;2024-01-06T04:37:28;20.17;;;6.80;;
67248;SDS011;63247;54.300;18.592;2024-01-06T04:39:53;13.23;;;5.33;;
67248;SDS011;63247;54.300;18.592;2024-01-06T04:42:19;12.52;;;4.13;;
67248;SDS011;63247;54.300;18.592;2024-01-06T04:44:47;9.10;;;2.97;;
67248;SDS011;63247;54.300;18.592;2024-01-06T04:47:12;11.05;;;3.05;;
67248;SDS011;63247;54.300;18.592;2024-01-06T04:49:38;7.67;;;2.63;;
67248;SDS011;63247;54.300;18.592;2024-01-06T04:52:03;5.43;;;1.93;;
67248;SDS011;63247;54.300;18.592;2024-01-06T04:54:29;6.23;;;1.90;;
67248;SDS011;63247;54.300;18.592;2024-01-06T04:56:54;5.78;;;1.90;;
67248;SDS011;63247;54.300;18.592;2024-01-06T04:59:21;6.53;;;1.55;;
67248;SDS011;63247;54.300;18.592;2024-01-06T05:01:46;4.15;;;1.50;;
67248;SDS011;63247;54.300;18.592;2024-01-06T05:04:12;5.60;;;1.50;;
67248;SDS011;63247;54.300;18.592;2024-01-06T05:06:37;4.83;;;1.40;;
67248;SDS011;63247;54.300;18.592;2024-01-06T05:09:03;3.47;;;1.17;;
67248;SDS011;63247;54.300;18.592;2024-01-06T05:11:28;3.47;;;1.10;;
67248;SDS011;63247;54.300;18.592;2024-01-06T05:13:54;5.37;;;0.90;;
67248;SDS011;63247;54.300;18.592;2024-01-06T05:16:20;5.10;;;1.10;;
67248;SDS011;63247;54.300;18.592;2024-01-06T05:18:46;4.65;;;1.00;;
67248;SDS011;63247;54.300;18.592;2024-01-06T05:21:11;3.75;;;0.90;;
67248;SDS011;63247;54.300;18.592;2024-01-06T05:23:36;3.03;;;0.90;;
67248;SDS011;63247;54.300;18.592;2024-01-06T05:26:02;4.33;;;0.80;;
67248;SDS011;63247;54.300;18.592;2024-01-06T05:28:27;2.97;;;0.80;;
67248;SDS011;63247;54.300;18.592;2024-01-06T05:30:53;4.17;;;1.00;;
67248;SDS011;63247;54.300;18.592;2024-01-06T05:33:18;3.67;;;1.00;;
67248;SDS011;63247;54.300;18.592;2024-01-06T05:35:43;4.35;;;1.23;;
67248;SDS011;63247;54.300;18.592;2024-01-06T05:38:09;5.50;;;1.70;;
67248;SDS011;63247;54.300;18.592;2024-01-06T05:40:34;5.13;;;1.50;;
67248;SDS011;63247;54.300;18.592;2024-01-06T05:43:00;4.33;;;1.37;;
67248;SDS011;63247;54.300;18.592;2024-01-06T05:45:25;6.77;;;1.87;;
67248;SDS011;63247;54.300;18.592;2024-01-06T05:47:50;5.50;;;1.70;;
67248;SDS011;63247;54.300;18.592;2024-01-06T05:50:16;5.13;;;1.60;;
67248;SDS011;63247;54.300;18.592;2024-01-06T05:52:42;4.80;;;1.52;;
67248;SDS011;63247;54.300;18.592;2024-01-06T05:55:08;4.18;;;1.50;;
67248;SDS011;63247;54.300;18.592;2024-01-06T05:57:34;4.20;;;1.67;;
67248;SDS011;63247;54.300;18.592;2024-01-06T05:59:59;6.22;;;1.50;;
67248;SDS011;63247;54.300;18.592;2024-01-06T06:02:25;6.27;;;1.70;;
67248;SDS011;63247;54.300;18.592;2024-01-06T06:04:50;6.27;;;1.70;;
67248;SDS011;63247;54.300;18.592;2024-01-06T06:07:17;4.55;;;1.38;;
67248;SDS011;63247;54.300;18.592;2024-01-06T06:09:42;5.73;;;2.10;;
67248;SDS011;63247;54.300;18.592;2024-01-06T06:12:08;4.32;;;1.45;;
67248;SDS011;63247;54.300;18.592;2024-01-06T06:14:33;5.10;;;1.60;;
67248;SDS011;63247;54.300;18.592;2024-01-06T06:16:59;7.93;;;1.70;;
67248;SDS011;63247;54.300;18.592;2024-01-06T06:19:24;7.10;;;1.60;;
67248;SDS011;63247;54.300;18.592;2024-01-06T06:21:49;4.73;;;1.50;;
67248;SDS011;63247;54.300;18.592;2024-01-06T06:24:15;5.80;;;1.60;;
67248;SDS011;63247;54.300;18.592;2024-01-06T06:26:40;4.77;;;1.40;;
67248;SDS011;63247;54.300;18.592;2024-01-06T06:29:06;5.07;;;1.60;;
67248;SDS011;63247;54.300;18.592;2024-01-06T06:31:31;6.88;;;1.80;;
67248;SDS011;63247;54.300;18.592;2024-01-06T06:33:56;7.60;;;1.50;;
67248;SDS011;63247;54.300;18.592;2024-01-06T06:36:22;4.70;;;1.57;;
67248;SDS011;63247;54.300;18.592;2024-01-06T06:38:47;5.90;;;1.43;;
67248;SDS011;63247;54.300;18.592;2024-01-06T06:41:13;4.67;;;1.60;;
67248;SDS011;63247;54.300;18.592;2024-01-06T06:43:38;8.07;;;1.80;;
67248;SDS011;63247;54.300;18.592;2024-01-06T06:46:03;5.63;;;1.70;;
67248;SDS011;63247;54.300;18.592;2024-01-06T06:48:29;5.03;;;1.70;;
67248;SDS011;63247;54.300;18.592;2024-01-06T06:50:55;6.20;;;1.83;;
67248;SDS011;63247;54.300;18.592;2024-01-06T06:53:20;43.72;;;7.75;;
67248;SDS011;63247;54.300;18.592;2024-01-06T06:55:46;7.00;;;1.60;;
67248;SDS011;63247;54.300;18.592;2024-01-06T06:58:12;3.97;;;1.40;;
67248;SDS011;63247;54.300;18.592;2024-01-06T07:00:37;13.27;;;2.78;;
67248;SDS011;63247;54.300;18.592;2024-01-06T07:03:03;12.52;;;2.45;;
67248;SDS011;63247;54.300;18.592;2024-01-06T07:05:29;21.60;;;5.43;;
67248;SDS011;63247;54.300;18.592;2024-01-06T07:07:55;10.47;;;2.30;;
67248;SDS011;63247;54.300;18.592;2024-01-06T07:10:20;11.18;;;1.50;;
67248;SDS011;63247;54.300;18.592;2024-01-06T07:12:45;4.77;;;1.07;;
67248;SDS011;63247;54.300;18.592;2024-01-06T07:15:11;9.23;;;1.10;;
67248;SDS011;63247;54.300;18.592;2024-01-06T07:17:36;3.97;;;1.00;;
67248;SDS011;63247;54.300;18.592;2024-01-06T07:20:03;6.10;;;1.40;;
67248;SDS011;63247;54.300;18.592;2024-01-06T07:22:31;7.10;;;1.98;;
67248;SDS011;63247;54.300;18.592;2024-01-06T07:24:57;4.83;;;1.33;;
67248;SDS011;63247;54.300;18.592;2024-01-06T07:27:23;5.40;;;1.90;;
67248;SDS011;63247;54.300;18.592;2024-01-06T07:29:48;6.17;;;1.83;;
67248;SDS011;63247;54.300;18.592;2024-01-06T07:32:13;6.03;;;1.85;;
67248;SDS011;63247;54.300;18.592;2024-01-06T07:34:40;7.72;;;2.50;;
67248;SDS011;63247;54.300;18.592;2024-01-06T07:37:05;6.77;;;2.27;;
67248;SDS011;63247;54.300;18.592;2024-01-06T07:39:31;6.80;;;2.50;;
67248;SDS011;63247;54.300;18.592;2024-01-06T07:41:56;8.20;;;2.67;;
67248;SDS011;63247;54.300;18.592;2024-01-06T07:44:22;9.37;;;3.23;;
67248;SDS011;63247;54.300;18.592;2024-01-06T07:46:50;19.60;;;9.13;;
67248;SDS011;63247;54.300;18.592;2024-01-06T07:49:16;12.98;;;6.80;;
67248;SDS011;63247;54.300;18.592;2024-01-06T07:51:41;14.33;;;5.33;;
67248;SDS011;63247;54.300;18.592;2024-01-06T07:54:07;9.37;;;3.60;;
67248;SDS011;63247;54.300;18.592;2024-01-06T07:56:33;10.93;;;4.07;;
67248;SDS011;63247;54.300;18.592;2024-01-06T07:58:59;63.67;;;14.85;;
67248;SDS011;63247;54.300;18.592;2024-01-06T08:01:26;64.97;;;14.32;;
67248;SDS011;63247;54.300;18.592;2024-01-06T08:03:51;18.57;;;4.80;;
67248;SDS011;63247;54.300;18.592;2024-01-06T08:06:16;26.50;;;6.65;;
67248;SDS011;63247;54.300;18.592;2024-01-06T08:08:42;11.02;;;3.00;;
67248;SDS011;63247;54.300;18.592;2024-01-06T08:11:07;6.60;;;2.17;;
67248;SDS011;63247;54.300;18.592;2024-01-06T08:13:33;10.37;;;3.47;;
67248;SDS011;63247;54.300;18.592;2024-01-06T08:15:58;9.17;;;2.80;;
67248;SDS011;63247;54.300;18.592;2024-01-06T08:18:24;4.47;;;1.58;;
67248;SDS011;63247;54.300;18.592;2024-01-06T08:20:49;8.17;;;3.20;;
67248;SDS011;63247;54.300;18.592;2024-01-06T08:23:15;11.67;;;3.57;;
67248;SDS011;63247;54.300;18.592;2024-01-06T08:25:41;11.25;;;3.70;;
67248;SDS011;63247;54.300;18.592;2024-01-06T08:28:06;9.63;;;3.47;;
67248;SDS011;63247;54.300;18.592;2024-01-06T08:30:32;15.47;;;5.13;;
67248;SDS011;63247;54.300;18.592;2024-01-06T08:32:57;11.95;;;3.80;;
67248;SDS011;63247;54.300;18.592;2024-01-06T08:35:24;9.88;;;2.80;;
67248;SDS011;63247;54.300;18.592;2024-01-06T08:37:50;13.27;;;3.63;;
67248;SDS011;63247;54.300;18.592;2024-01-06T08:40:15;12.80;;;3.67;;
67248;SDS011;63247;54.300;18.592;2024-01-06T08:42:41;9.53;;;2.63;;
67248;SDS011;63247;54.300;18.592;2024-01-06T08:45:06;18.70;;;6.03;;
67248;SDS011;63247;54.300;18.592;2024-01-06T08:47:32;13.70;;;4.38;;
67248;SDS011;63247;54.300;18.592;2024-01-06T08:49:57;11.87;;;4.40;;
67248;SDS011;63247;54.300;18.592;2024-01-06T08:52:23;8.60;;;3.20;;
67248;SDS011;63247;54.300;18.592;2024-01-06T08:54:48;9.87;;;3.30;;
67248;SDS011;63247;54.300;18.592;2024-01-06T08:57:14;10.85;;;3.38;;
67248;SDS011;63247;54.300;18.592;2024-01-06T08:59:40;12.13;;;4.37;;
67248;SDS011;63247;54.300;18.592;2024-01-06T09:02:05;9.70;;;3.88;;
67248;SDS011;63247;54.300;18.592;2024-01-06T09:04:31;6.68;;;2.60;;
67248;SDS011;63247;54.300;18.592;2024-01-06T09:06:56;6.57;;;2.00;;
67248;SDS011;63247;54.300;18.592;2024-01-06T09:09:21;7.37;;;2.30;;
67248;SDS011;63247;54.300;18.592;2024-01-06T09:11:48;9.13;;;3.00;;
67248;SDS011;63247;54.300;18.592;2024-01-06T09:14:14;12.20;;;3.80;;
67248;SDS011;63247;54.300;18.592;2024-01-06T09:16:39;12.80;;;3.73;;
67248;SDS011;63247;54.300;18.592;2024-01-06T09:19:05;10.90;;;3.67;;
67248;SDS011;63247;54.300;18.592;2024-01-06T09:21:30;9.53;;;3.50;;
67248;SDS011;63247;54.300;18.592;2024-01-06T09:23:56;36.60;;;16.03;;
67248;SDS011;63247;54.300;18.592;2024-01-06T09:26:21;42.00;;;21.33;;
67248;SDS011;63247;54.300;18.592;2024-01-06T09:28:47;15.65;;;6.90;;
67248;SDS011;63247;54.300;18.592;2024-01-06T09:31:13;18.30;;;5.57;;
67248;SDS011;63247;54.300;18.592;2024-01-06T09:33:38;9.70;;;4.25;;
67248;SDS011;63247;54.300;18.592;2024-01-06T09:36:04;20.30;;;5.93;;
67248;SDS011;63247;54.300;18.592;2024-01-06T09:38:30;9.70;;;3.78;;
67248;SDS011;63247;54.300;18.592;2024-01-06T09:40:55;15.70;;;4.43;;
67248;SDS011;63247;54.300;18.592;2024-01-06T09:43:22;6.93;;;2.08;;
67248;SDS011;63247;54.300;18.592;2024-01-06T09:45:48;20.10;;;6.00;;
67248;SDS011;63247;54.300;18.592;2024-01-06T09:48:28;10.73;;;4.53;;
67248;SDS011;63247;54.300;18.592;2024-01-06T09:50:56;18.37;;;5.17;;
67248;SDS011;63247;54.300;18.592;2024-01-06T09:53:23;33.90;;;9.63;;
67248;SDS011;63247;54.300;18.592;2024-01-06T09:55:54;61.67;;;16.77;;
67248;SDS011;63247;54.300;18.592;2024-01-06T09:58:20;57.65;;;15.50;;
67248;SDS011;63247;54.300;18.592;2024-01-06T10:00:48;36.60;;;9.00;;
67248;SDS011;63247;54.300;18.592;2024-01-06T10:03:14;30.17;;;7.85;;
67248;SDS011;63247;54.300;18.592;2024-01-06T10:05:40;40.07;;;9.57;;
67248;SDS011;63247;54.300;18.592;2024-01-06T10:08:05;21.97;;;5.97;;
67248;SDS011;63247;54.300;18.592;2024-01-06T10:10:32;47.83;;;15.00;;
67248;SDS011;63247;54.300;18.592;2024-01-06T10:12:59;39.05;;;12.57;;
67248;SDS011;63247;54.300;18.592;2024-01-06T10:15:25;24.77;;;7.00;;
67248;SDS011;63247;54.300;18.592;2024-01-06T10:17:50;16.77;;;5.73;;
67248;SDS011;63247;54.300;18.592;2024-01-06T10:20:19;12.18;;;4.57;;
67248;SDS011;63247;54.300;18.592;2024-01-06T10:22:45;10.55;;;3.65;;
67248;SDS011;63247;54.300;18.592;2024-01-06T10:25:11;8.83;;;3.03;;
67248;SDS011;63247;54.300;18.592;2024-01-06T10:27:38;7.18;;;2.75;;
67248;SDS011;63247;54.300;18.592;2024-01-06T10:30:04;8.07;;;2.83;;
67248;SDS011;63247;54.300;18.592;2024-01-06T10:32:34;10.38;;;3.95;;
67248;SDS011;63247;54.300;18.592;2024-01-06T10:35:01;8.23;;;3.40;;
67248;SDS011;63247;54.300;18.592;2024-01-06T10:37:28;7.10;;;2.20;;
67248;SDS011;63247;54.300;18.592;2024-01-06T10:40:12;32.92;;;9.60;;
67248;SDS011;63247;54.300;18.592;2024-01-06T10:42:41;22.95;;;8.27;;
67248;SDS011;63247;54.300;18.592;2024-01-06T10:45:08;14.00;;;5.07;;
67248;SDS011;63247;54.300;18.592;2024-01-06T10:47:35;10.50;;;4.00;;
67248;SDS011;63247;54.300;18.592;2024-01-06T10:50:01;10.15;;;3.83;;
67248;SDS011;63247;54.300;18.592;2024-01-06T10:52:30;9.45;;;3.10;;
67248;SDS011;63247;54.300;18.592;2024-01-06T10:54:55;15.55;;;5.60;;
67248;SDS011;63247;54.300;18.592;2024-01-06T10:57:22;27.65;;;9.13;;
67248;SDS011;63247;54.300;18.592;2024-01-06T10:59:52;15.20;;;5.03;;
67248;SDS011;63247;54.300;18.592;2024-01-06T11:02:17;12.65;;;3.95;;
67248;SDS011;63247;54.300;18.592;2024-01-06T11:04:47;7.97;;;2.50;;
67248;SDS011;63247;54.300;18.592;2024-01-06T11:07:14;24.60;;;7.22;;
67248;SDS011;63247;54.300;18.592;2024-01-06T11:09:56;28.45;;;8.15;;
67248;SDS011;63247;54.300;18.592;2024-01-06T11:12:22;19.00;;;5.95;;
67248;SDS011;63247;54.300;18.592;2024-01-06T11:14:47;19.70;;;5.17;;
67248;SDS011;63247;54.300;18.592;2024-01-06T11:17:12;9.53;;;2.73;;
67248;SDS011;63247;54.300;18.592;2024-01-06T11:24:56;24.27;;;8.07;;
67248;SDS011;63247;54.300;18.592;2024-01-06T11:27:29;16.25;;;4.65;;
67248;SDS011;63247;54.300;18.592;2024-01-06T11:29:57;39.42;;;12.02;;
67248;SDS011;63247;54.300;18.592;2024-01-06T11:32:30;13.45;;;3.70;;
67248;SDS011;63247;54.300;18.592;2024-01-06T11:35:05;13.77;;;4.43;;
67248;SDS011;63247;54.300;18.592;2024-01-06T11:40:08;12.65;;;4.55;;
67248;SDS011;63247;54.300;18.592;2024-01-06T11:43:31;10.45;;;4.20;;
67248;SDS011;63247;54.300;18.592;2024-01-06T11:45:35;24.73;;;7.25;;
67248;SDS011;63247;54.300;18.592;2024-01-06T11:48:06;21.73;;;7.25;;
67248;SDS011;63247;54.300;18.592;2024-01-06T11:50:33;21.33;;;7.37;;
67248;SDS011;63247;54.300;18.592;2024-01-06T11:53:01;8.88;;;3.30;;
67248;SDS011;63247;54.300;18.592;2024-01-06T11:55:27;11.45;;;3.78;;
67248;SDS011;63247;54.300;18.592;2024-01-06T11:57:54;15.75;;;3.58;;
67248;SDS011;63247;54.300;18.592;2024-01-06T12:00:21;17.58;;;5.43;;
67248;SDS011;63247;54.300;18.592;2024-01-06T12:02:46;13.97;;;4.97;;
67248;SDS011;63247;54.300;18.592;2024-01-06T12:05:15;13.23;;;4.23;;
67248;SDS011;63247;54.300;18.592;2024-01-06T12:07:42;11.32;;;3.45;;
67248;SDS011;63247;54.300;18.592;2024-01-06T12:10:09;7.07;;;2.42;;
67248;SDS011;63247;54.300;18.592;2024-01-06T12:12:34;7.22;;;1.98;;
67248;SDS011;63247;54.300;18.592;2024-01-06T12:15:00;7.97;;;2.65;;
67248;SDS011;63247;54.300;18.592;2024-01-06T12:17:27;7.87;;;2.10;;
67248;SDS011;63247;54.300;18.592;2024-01-06T12:19:54;6.15;;;2.38;;
67248;SDS011;63247;54.300;18.592;2024-01-06T12:22:20;8.07;;;2.17;;
67248;SDS011;63247;54.300;18.592;2024-01-06T12:24:48;7.20;;;1.90;;
67248;SDS011;63247;54.300;18.592;2024-01-06T12:27:14;6.25;;;2.15;;
67248;SDS011;63247;54.300;18.592;2024-01-06T12:29:41;6.50;;;1.95;;
67248;SDS011;63247;54.300;18.592;2024-01-06T12:32:07;5.30;;;1.27;;
67248;SDS011;63247;54.300;18.592;2024-01-06T12:34:34;3.15;;;1.00;;
67248;SDS011;63247;54.300;18.592;2024-01-06T12:37:00;4.57;;;1.13;;
67248;SDS011;63247;54.300;18.592;2024-01-06T12:39:29;4.30;;;0.60;;
67248;SDS011;63247;54.300;18.592;2024-01-06T12:41:55;5.50;;;0.60;;
67248;SDS011;63247;54.300;18.592;2024-01-06T12:44:21;4.05;;;1.13;;
67248;SDS011;63247;54.300;18.592;2024-01-06T12:46:47;4.87;;;1.40;;
67248;SDS011;63247;54.300;18.592;2024-01-06T12:49:13;5.57;;;1.25;;
67248;SDS011;63247;54.300;18.592;2024-01-06T12:51:38;4.80;;;1.50;;
67248;SDS011;63247;54.300;18.592;2024-01-06T12:54:04;5.33;;;1.40;;
67248;SDS011;63247;54.300;18.592;2024-01-06T12:56:29;5.10;;;1.50;;
67248;SDS011;63247;54.300;18.592;2024-01-06T12:58:56;6.10;;;1.80;;
67248;SDS011;63247;54.300;18.592;2024-01-06T13:01:22;6.57;;;2.23;;
67248;SDS011;63247;54.300;18.592;2024-01-06T13:03:47;8.03;;;2.00;;
67248;SDS011;63247;54.300;18.592;2024-01-06T13:06:13;7.85;;;2.40;;
67248;SDS011;63247;54.300;18.592;2024-01-06T13:08:39;13.13;;;3.97;;
67248;SDS011;63247;54.300;18.592;2024-01-06T13:11:05;10.90;;;3.97;;
67248;SDS011;63247;54.300;18.592;2024-01-06T13:13:30;12.63;;;4.03;;
67248;SDS011;63247;54.300;18.592;2024-01-06T13:15:56;11.13;;;3.30;;
67248;SDS011;63247;54.300;18.592;2024-01-06T13:18:22;17.87;;;4.93;;
67248;SDS011;63247;54.300;18.592;2024-01-06T13:20:47;8.25;;;3.00;;
67248;SDS011;63247;54.300;18.592;2024-01-06T13:23:14;11.52;;;3.92;;
67248;SDS011;63247;54.300;18.592;2024-01-06T13:25:40;10.60;;;3.50;;
67248;SDS011;63247;54.300;18.592;2024-01-06T13:28:06;24.48;;;9.02;;
67248;SDS011;63247;54.300;18.592;2024-01-06T13:30:32;6.77;;;2.13;;
67248;SDS011;63247;54.300;18.592;2024-01-06T13:32:58;7.00;;;2.00;;
67248;SDS011;63247;54.300;18.592;2024-01-06T13:35:24;6.53;;;1.83;;
67248;SDS011;63247;54.300;18.592;2024-01-06T13:37:53;4.83;;;1.57;;
67248;SDS011;63247;54.300;18.592;2024-01-06T13:40:20;4.95;;;1.50;;
67248;SDS011;63247;54.300;18.592;2024-01-06T13:42:47;3.75;;;0.93;;
67248;SDS011;63247;54.300;18.592;2024-01-06T13:45:13;6.88;;;2.05;;
67248;SDS011;63247;54.300;18.592;2024-01-06T13:47:38;16.80;;;5.73;;
67248;SDS011;63247;54.300;18.592;2024-01-06T13:50:09;10.43;;;2.22;;
67248;SDS011;63247;54.300;18.592;2024-01-06T13:52:39;8.50;;;3.20;;
67248;SDS011;63247;54.300;18.592;2024-01-06T13:55:05;9.80;;;3.10;;
67248;SDS011;63247;54.300;18.592;2024-01-06T13:57:31;11.52;;;3.53;;
67248;SDS011;63247;54.300;18.592;2024-01-06T13:59:57;10.10;;;3.23;;
67248;SDS011;63247;54.300;18.592;2024-01-06T14:02:23;9.65;;;3.58;;
67248;SDS011;63247;54.300;18.592;2024-01-06T14:04:49;8.67;;;2.67;;
67248;SDS011;63247;54.300;18.592;2024-01-06T14:07:14;15.80;;;4.93;;
67248;SDS011;63247;54.300;18.592;2024-01-06T14:09:43;18.88;;;6.18;;
67248;SDS011;63247;54.300;18.592;2024-01-06T14:12:09;7.13;;;2.70;;
67248;SDS011;63247;54.300;18.592;2024-01-06T14:14:34;9.23;;;2.70;;
67248;SDS011;63247;54.300;18.592;2024-01-06T14:17:00;9.68;;;3.42;;
67248;SDS011;63247;54.300;18.592;2024-01-06T14:19:25;15.75;;;3.72;;
67248;SDS011;63247;54.300;18.592;2024-01-06T14:21:51;14.30;;;4.00;;
67248;SDS011;63247;54.300;18.592;2024-01-06T14:24:16;11.17;;;4.40;;